Time;durP1;ratioP1;P1;durP2;ratioP2;P2;SDS_P1;SDS_P2;PMS_P1;PMS_P2;Temp;Humidity;BMP_temperature;BMP_pressure;BME280_temperature;BME280_humidity;BME280_pressure;Samples;Min_cycle;Max_cycle;Signal;HPM_P1;HPM_P2
2022/03/19 00:01:14;;;;;;;13.43;2.40;;;7.50;99.90;;;;;;6309005;22;20024;-91
2022/03/19 00:03:42;;;;;;;7.63;1.25;;;7.40;99.90;;;;;;6282010;22;20447;-90
2022/03/19 00:06:09;;;;;;;13.00;2.55;;;7.50;99.90;;;;;;6281771;22;20029;-90
2022/03/19 00:08:37;;;;;;;13.25;2.03;;;7.30;99.90;;;;;;6282743;22;20390;-89
2022/03/19 00:11:04;;;;;;;15.85;2.25;;;7.30;99.90;;;;;;6281768;22;20115;-91
2022/03/19 00:13:31;;;;;;;11.95;2.63;;;7.30;99.90;;;;;;6281845;22;20056;-90
2022/03/19 00:15:58;;;;;;;8.70;1.70;;;7.20;99.90;;;;;;6255843;22;20113;-91
2022/03/19 00:18:25;;;;;;;15.65;2.13;;;7.30;99.90;;;;;;6282265;22;20019;-90
2022/03/19 00:20:53;;;;;;;15.07;2.05;;;7.30;99.90;;;;;;6281478;22;20042;-90
2022/03/19 00:23:20;;;;;;;6.78;2.33;;;7.30;99.90;;;;;;6281973;22;20023;-91
2022/03/19 00:25:47;;;;;;;11.57;2.13;;;7.30;99.90;;;;;;6281122;22;20446;-90
2022/03/19 00:28:18;;;;;;;10.57;1.88;;;7.30;99.90;;;;;;6281580;22;20021;-91
2022/03/19 00:30:49;;;;;;;9.13;1.85;;;7.40;99.90;;;;;;6281736;22;20046;-90
2022/03/19 00:33:17;;;;;;;8.50;1.38;;;7.30;99.90;;;;;;6307148;22;20072;-91
2022/03/19 00:35:43;;;;;;;7.50;1.55;;;7.40;99.90;;;;;;6281428;22;20050;-91
2022/03/19 00:38:10;;;;;;;9.50;1.45;;;7.80;99.90;;;;;;6281193;22;20073;-90
2022/03/19 00:40:37;;;;;;;5.50;1.40;;;7.70;99.90;;;;;;6281471;22;20030;-91
2022/03/19 00:43:04;;;;;;;7.05;1.50;;;7.80;99.90;;;;;;6281228;22;20077;-89
2022/03/19 00:45:31;;;;;;;7.03;1.40;;;7.40;99.90;;;;;;6281426;22;20019;-90
2022/03/19 00:47:58;;;;;;;11.82;1.38;;;7.30;99.90;;;;;;6280943;22;20077;-90
2022/03/19 00:50:25;;;;;;;6.05;1.00;;;7.20;99.90;;;;;;6255755;22;20451;-89
2022/03/19 00:52:52;;;;;;;10.00;1.80;;;7.20;99.90;;;;;;6280699;22;20447;-90
2022/03/19 00:55:19;;;;;;;11.75;1.90;;;7.40;99.90;;;;;;6281326;22;20039;-90
2022/03/19 00:57:47;;;;;;;10.93;2.63;;;7.30;99.90;;;;;;6280833;22;20047;-89
2022/03/19 01:00:22;;;;;;;8.38;1.85;;;7.20;99.90;;;;;;6281174;22;20350;-91
2022/03/19 01:02:49;;;;;;;5.05;1.98;;;7.30;99.90;;;;;;6281133;22;20050;-90
2022/03/19 01:05:17;;;;;;;13.85;3.05;;;7.30;99.90;;;;;;6281793;22;20090;-90
2022/03/19 01:07:49;;;;;;;7.65;2.10;;;7.40;99.90;;;;;;6280921;22;20041;-90
2022/03/19 01:10:20;;;;;;;8.40;1.70;;;7.30;99.90;;;;;;6281452;22;20025;-91
2022/03/19 01:12:52;;;;;;;10.93;1.65;;;7.40;99.90;;;;;;6280180;22;20023;-90
2022/03/19 01:15:19;;;;;;;5.88;1.20;;;7.40;99.90;;;;;;6308904;22;20068;-90
2022/03/19 01:17:47;;;;;;;3.53;0.65;;;7.40;99.90;;;;;;6306338;22;20046;-90
2022/03/19 01:20:15;;;;;;;5.43;1.75;;;7.40;99.90;;;;;;6281156;22;20039;-90
2022/03/19 01:22:44;;;;;;;9.88;1.60;;;7.20;99.90;;;;;;6280347;22;20110;-89
2022/03/19 01:25:12;;;;;;;6.57;1.30;;;7.00;99.90;;;;;;6280757;22;20102;-90
2022/03/19 01:27:41;;;;;;;6.20;1.05;;;7.10;99.90;;;;;;6280756;22;20085;-91
2022/03/19 01:30:11;;;;;;;5.60;1.45;;;7.40;99.90;;;;;;6255273;22;20102;-90
2022/03/19 01:32:39;;;;;;;9.15;1.35;;;7.20;99.90;;;;;;6280785;22;20016;-90
2022/03/19 01:35:07;;;;;;;10.98;1.63;;;7.10;99.90;;;;;;6280822;22;20023;-90
2022/03/19 01:37:34;;;;;;;9.20;1.98;;;6.90;99.90;;;;;;6280552;22;20020;-90
2022/03/19 01:40:02;;;;;;;7.78;2.28;;;6.90;99.90;;;;;;6307327;22;20094;-89
2022/03/19 01:42:31;;;;;;;5.97;0.88;;;6.80;99.90;;;;;;6255062;22;20023;-90
2022/03/19 01:44:59;;;;;;;9.02;1.35;;;6.90;99.90;;;;;;6281025;22;20102;-89
2022/03/19 01:47:28;;;;;;;4.00;1.27;;;7.10;99.90;;;;;;6280545;22;20660;-90
2022/03/19 01:49:57;;;;;;;4.15;0.75;;;7.30;99.90;;;;;;6282169;22;20086;-90
2022/03/19 01:52:28;;;;;;;5.97;1.00;;;7.00;99.90;;;;;;6280178;22;20077;-89
2022/03/19 01:54:56;;;;;;;5.53;2.03;;;6.90;99.90;;;;;;6280722;22;20015;-89
2022/03/19 01:57:28;;;;;;;4.85;1.08;;;7.00;99.90;;;;;;6254999;22;20019;-90
2022/03/19 01:59:57;;;;;;;11.45;1.58;;;6.90;99.90;;;;;;6281054;22;20015;-90
2022/03/19 02:02:26;;;;;;;15.70;2.15;;;6.80;99.90;;;;;;6280008;22;20026;-89
2022/03/19 02:04:54;;;;;;;2.42;0.88;;;6.70;99.90;;;;;;6281033;22;20094;-90
2022/03/19 02:07:21;;;;;;;7.80;1.60;;;6.90;99.90;;;;;;6308495;22;20072;-90
2022/03/19 02:09:48;;;;;;;5.93;1.30;;;6.80;99.90;;;;;;6282055;22;20050;-89
2022/03/19 02:12:15;;;;;;;4.95;2.17;;;6.80;99.90;;;;;;6280197;22;20015;-90
2022/03/19 02:14:44;;;;;;;7.40;1.30;;;6.90;99.90;;;;;;6280729;22;20015;-89
2022/03/19 02:17:11;;;;;;;7.57;2.05;;;6.90;99.90;;;;;;6280537;22;20023;-91
2022/03/19 02:19:53;;;;;;;4.40;1.02;;;6.80;99.90;;;;;;6254800;22;20023;-89
2022/03/19 02:22:22;;;;;;;11.45;1.52;;;6.80;99.90;;;;;;6254798;22;20030;-90
2022/03/19 02:27:36;;;;;;;5.28;1.10;;;6.60;99.90;;;;;;6280605;22;20023;-89
2022/03/19 02:30:05;;;;;;;11.38;1.50;;;6.80;99.90;;;;;;6279678;22;20021;-88
2022/03/19 02:32:34;;;;;;;10.35;1.27;;;6.90;99.90;;;;;;6280981;22;20067;-89
2022/03/19 02:35:02;;;;;;;6.70;1.42;;;7.00;99.90;;;;;;6280341;22;20015;-89
2022/03/19 02:37:47;;;;;;;8.02;1.58;;;6.90;99.90;;;;;;6280619;22;20018;-90
2022/03/19 02:40:16;;;;;;;6.15;1.17;;;6.90;99.90;;;;;;6255035;22;20039;-89
2022/03/19 02:42:47;;;;;;;11.90;1.63;;;6.80;99.90;;;;;;6254602;22;20023;-90
2022/03/19 02:45:15;;;;;;;5.95;1.30;;;6.70;99.90;;;;;;6280181;22;20092;-90
2022/03/19 02:47:57;;;;;;;7.63;1.92;;;6.60;99.90;;;;;;6254574;22;20019;-90
2022/03/19 02:50:35;;;;;;;7.47;1.50;;;6.80;99.90;;;;;;6280193;22;20015;-90
2022/03/19 02:53:05;;;;;;;9.85;2.58;;;6.60;99.90;;;;;;6279598;22;20015;-90
2022/03/19 02:55:34;;;;;;;6.07;2.33;;;6.50;99.90;;;;;;6254924;22;20053;-91
2022/03/19 02:58:02;;;;;;;8.15;1.63;;;6.40;99.90;;;;;;6229619;22;20019;-89
2022/03/19 03:00:30;;;;;;;12.98;1.52;;;6.40;99.90;;;;;;6307679;22;20076;-90
2022/03/19 03:02:57;;;;;;;7.07;2.10;;;6.50;99.90;;;;;;6307576;22;20191;-90
2022/03/19 03:05:25;;;;;;;12.35;2.22;;;6.40;99.90;;;;;;6280113;22;20098;-89
2022/03/19 03:07:52;;;;;;;9.45;1.77;;;6.20;99.90;;;;;;6280179;22;20023;-90
2022/03/19 03:10:19;;;;;;;7.05;1.40;;;6.30;99.90;;;;;;6280430;22;20015;-91
2022/03/19 03:12:46;;;;;;;16.02;1.58;;;6.30;99.90;;;;;;6280282;22;20035;-90
2022/03/19 03:15:13;;;;;;;12.20;1.88;;;6.30;99.90;;;;;;6280278;22;20020;-90
2022/03/19 03:17:41;;;;;;;8.50;1.77;;;6.30;99.90;;;;;;6279942;22;20041;-90
2022/03/19 03:20:09;;;;;;;12.18;3.15;;;6.30;99.90;;;;;;6279709;22;20042;-89
2022/03/19 03:22:37;;;;;;;8.02;1.40;;;6.50;99.90;;;;;;6281560;22;20413;-91
2022/03/19 03:25:06;;;;;;;16.10;2.70;;;6.30;99.90;;;;;;6281845;22;20022;-89
2022/03/19 03:27:33;;;;;;;15.95;2.38;;;6.20;99.90;;;;;;6281897;22;20025;-90
2022/03/19 03:29:59;;;;;;;7.78;1.33;;;6.20;99.90;;;;;;6231799;22;20092;-90
2022/03/19 03:32:26;;;;;;;11.75;2.72;;;6.50;99.90;;;;;;6281589;22;20502;-89
2022/03/19 03:34:53;;;;;;;9.50;1.88;;;6.50;99.90;;;;;;6257177;22;20020;-90
2022/03/19 03:37:21;;;;;;;6.22;1.88;;;6.40;99.90;;;;;;6256510;22;20097;-91
2022/03/19 03:39:48;;;;;;;7.60;1.98;;;6.60;99.90;;;;;;6281488;22;20072;-90
2022/03/19 03:42:16;;;;;;;6.93;2.83;;;6.40;99.90;;;;;;6282027;22;20026;-90
2022/03/19 03:44:43;;;;;;;10.57;2.33;;;6.30;99.90;;;;;;6281834;22;20049;-90
2022/03/19 03:47:10;;;;;;;6.10;2.20;;;6.20;99.90;;;;;;6256345;22;20077;-90
2022/03/19 03:49:37;;;;;;;14.63;2.65;;;6.20;99.90;;;;;;6281661;22;20046;-91
2022/03/19 03:52:05;;;;;;;7.80;1.90;;;6.10;99.90;;;;;;6281639;22;20443;-89
2022/03/19 03:54:32;;;;;;;6.80;2.15;;;6.20;99.90;;;;;;6281981;22;20011;-89
2022/03/19 03:56:59;;;;;;;6.22;1.60;;;6.20;99.90;;;;;;6282076;22;20007;-90
2022/03/19 03:59:26;;;;;;;9.85;2.45;;;6.50;99.90;;;;;;6282174;22;20019;-90
2022/03/19 04:01:53;;;;;;;9.32;2.30;;;6.50;99.90;;;;;;6282343;22;20367;-90
2022/03/19 04:04:20;;;;;;;12.73;2.55;;;6.50;99.90;;;;;;6283129;22;20094;-91
2022/03/19 04:06:47;;;;;;;11.20;2.92;;;6.40;99.90;;;;;;6283998;22;20047;-90
2022/03/19 04:09:14;;;;;;;12.32;2.80;;;6.20;99.90;;;;;;6255796;22;20015;-90
2022/03/19 04:11:41;;;;;;;8.07;2.55;;;6.10;99.90;;;;;;6281461;22;20416;-90
2022/03/19 04:14:08;;;;;;;12.75;2.42;;;6.20;99.90;;;;;;6256132;22;20041;-89
2022/03/19 04:16:37;;;;;;;5.18;1.50;;;6.40;99.90;;;;;;6281234;22;20015;-91
2022/03/19 04:19:04;;;;;;;11.52;2.08;;;6.50;99.90;;;;;;6281656;22;20015;-89
2022/03/19 04:21:31;;;;;;;12.75;2.53;;;6.40;99.90;;;;;;6281414;22;20020;-90
2022/03/19 04:23:58;;;;;;;10.13;3.17;;;6.30;99.90;;;;;;6281114;22;20026;-90
2022/03/19 04:26:25;;;;;;;11.45;3.47;;;6.20;99.90;;;;;;6281436;22;20035;-91
2022/03/19 04:28:52;;;;;;;12.95;3.03;;;6.20;99.90;;;;;;6281746;22;20102;-90
2022/03/19 04:31:19;;;;;;;10.30;2.63;;;6.10;99.90;;;;;;6281050;22;20529;-91
2022/03/19 04:33:46;;;;;;;13.25;3.05;;;6.00;99.90;;;;;;6256428;22;20324;-90
2022/03/19 04:36:32;;;;;;;9.40;3.13;;;6.10;99.90;;;;;;6255489;22;20106;-90
2022/03/19 04:39:02;;;;;;;12.55;2.95;;;6.10;99.90;;;;;;6282705;22;20418;-90
2022/03/19 04:41:30;;;;;;;19.90;3.38;;;6.30;99.90;;;;;;6281996;22;20443;-90
2022/03/19 04:43:58;;;;;;;4.60;2.65;;;6.10;99.90;;;;;;6257337;22;20023;-90
2022/03/19 04:46:25;;;;;;;11.52;3.53;;;6.10;99.90;;;;;;6281058;22;20027;-91
2022/03/19 04:48:53;;;;;;;15.13;3.75;;;6.10;99.90;;;;;;6281588;22;20069;-89
2022/03/19 04:51:23;;;;;;;9.18;3.30;;;6.10;99.90;;;;;;6280872;22;20479;-90
2022/03/19 04:53:52;;;;;;;10.73;3.58;;;6.10;99.90;;;;;;6281294;22;20043;-91
2022/03/19 04:56:27;;;;;;;11.75;3.05;;;6.00;99.90;;;;;;6281209;22;20015;-90
2022/03/19 04:58:57;;;;;;;11.20;3.58;;;6.10;99.90;;;;;;6281315;22;20015;-91
2022/03/19 05:01:28;;;;;;;13.63;3.45;;;6.00;99.90;;;;;;6281116;22;20043;-90
2022/03/19 05:03:55;;;;;;;10.43;2.75;;;6.00;99.90;;;;;;6281414;22;20047;-90
2022/03/19 05:06:22;;;;;;;6.28;2.70;;;6.00;99.90;;;;;;6280699;22;20421;-92
2022/03/19 05:11:35;;;;;;;10.50;3.22;;;6.10;99.90;;;;;;6280637;22;20046;-90
2022/03/19 05:14:04;;;;;;;13.43;3.72;;;6.30;99.90;;;;;;6280679;22;20023;-90
2022/03/19 05:16:32;;;;;;;7.30;3.15;;;6.20;99.90;;;;;;6281143;22;20064;-90
2022/03/19 05:18:59;;;;;;;7.65;2.40;;;6.10;99.90;;;;;;6281235;22;20035;-89
2022/03/19 05:21:27;;;;;;;10.80;3.50;;;6.00;99.90;;;;;;6280485;22;20072;-90
2022/03/19 05:23:55;;;;;;;9.13;2.47;;;5.90;99.90;;;;;;6280829;22;20098;-90
2022/03/19 05:26:22;;;;;;;22.33;3.80;;;6.00;99.90;;;;;;6280792;22;20011;-89
2022/03/19 05:28:49;;;;;;;9.63;3.58;;;5.90;99.90;;;;;;6280977;22;20024;-89
2022/03/19 05:31:31;;;;;;;18.77;3.80;;;5.80;99.90;;;;;;6307350;22;20045;-89
2022/03/19 05:36:44;;;;;;;10.00;2.42;;;5.80;99.90;;;;;;6280793;22;20011;-90
2022/03/19 05:39:10;;;;;;;7.93;2.45;;;5.80;99.90;;;;;;6255702;22;20027;-89
2022/03/19 05:41:38;;;;;;;3.15;1.88;;;6.00;99.90;;;;;;6280588;22;20019;-90
2022/03/19 05:44:05;;;;;;;8.20;3.00;;;6.10;99.90;;;;;;6280453;22;20073;-90
2022/03/19 05:46:33;;;;;;;14.50;2.85;;;6.10;99.90;;;;;;6277827;22;20021;-89
2022/03/19 05:49:00;;;;;;;9.38;3.03;;;6.00;99.90;;;;;;6277011;22;20021;-89
2022/03/19 05:51:27;;;;;;;9.73;2.70;;;6.00;99.90;;;;;;6308169;22;20057;-90
2022/03/19 05:53:54;;;;;;;7.47;1.60;;;6.00;99.90;;;;;;6280533;22;20452;-90
2022/03/19 05:56:21;;;;;;;12.00;3.33;;;6.00;99.90;;;;;;6280626;22;20020;-90
2022/03/19 05:58:48;;;;;;;16.08;2.53;;;5.90;99.90;;;;;;6280998;22;20041;-89
2022/03/19 06:01:15;;;;;;;5.93;1.90;;;6.00;99.90;;;;;;6280185;22;20077;-89
2022/03/19 06:03:43;;;;;;;5.05;2.15;;;6.10;99.90;;;;;;6281419;22;20042;-90
2022/03/19 06:06:10;;;;;;;8.77;1.85;;;6.30;99.90;;;;;;6306134;22;20034;-90
2022/03/19 06:08:37;;;;;;;19.10;3.63;;;6.30;99.90;;;;;;6255101;22;20015;-90
2022/03/19 06:11:04;;;;;;;12.63;2.80;;;6.00;99.90;;;;;;6281432;22;20402;-90
2022/03/19 06:13:31;;;;;;;12.93;2.50;;;5.90;99.90;;;;;;6307434;22;20319;-90
2022/03/19 06:15:58;;;;;;;10.57;2.42;;;5.90;99.90;;;;;;6255134;22;20094;-90
2022/03/19 06:18:27;;;;;;;9.70;2.25;;;5.90;99.90;;;;;;6281102;22;20086;-89
2022/03/19 06:20:54;;;;;;;15.15;4.28;;;5.90;99.90;;;;;;6280736;22;20438;-90
2022/03/19 06:23:20;;;;;;;9.65;3.50;;;5.80;99.90;;;;;;6280015;22;20020;-90
2022/03/19 06:25:48;;;;;;;10.98;3.45;;;5.80;99.90;;;;;;6280975;22;20027;-90
2022/03/19 06:28:15;;;;;;;15.57;4.10;;;5.90;99.90;;;;;;6280372;22;20019;-89
2022/03/19 06:30:45;;;;;;;7.13;2.25;;;5.90;99.90;;;;;;6281127;22;20072;-92
2022/03/19 06:33:18;;;;;;;15.93;2.50;;;6.00;99.90;;;;;;6308149;22;20015;-90
2022/03/19 06:38:36;;;;;;;9.20;3.22;;;6.00;99.90;;;;;;6280255;22;20046;-91
2022/03/19 06:41:03;;;;;;;14.48;3.28;;;6.10;99.90;;;;;;6281065;22;20019;-91
2022/03/19 06:43:31;;;;;;;10.73;2.83;;;6.10;99.90;;;;;;6279974;22;20019;-91
2022/03/19 06:45:58;;;;;;;4.50;2.38;;;6.10;99.90;;;;;;6254831;22;20451;-91
2022/03/19 06:48:26;;;;;;;6.40;2.72;;;6.10;99.90;;;;;;6280384;22;20090;-91
2022/03/19 06:50:54;;;;;;;13.82;2.75;;;6.20;99.90;;;;;;6255466;22;20046;-92
2022/03/19 06:53:21;;;;;;;8.23;2.75;;;6.20;99.90;;;;;;6280224;22;20019;-93
2022/03/19 06:55:51;;;;;;;12.15;3.67;;;6.20;99.90;;;;;;6308232;22;20019;-92
2022/03/19 06:58:21;;;;;;;15.30;3.65;;;6.20;99.90;;;;;;6310272;22;20477;-94
2022/03/19 07:00:49;;;;;;;10.63;2.60;;;6.20;99.90;;;;;;6283700;22;20081;-93
2022/03/19 07:03:16;;;;;;;6.20;1.77;;;6.30;99.90;;;;;;6282498;22;20023;-94
2022/03/19 07:05:46;;;;;;;8.32;2.53;;;6.30;99.90;;;;;;6282700;22;20477;-93
2022/03/19 07:08:15;;;;;;;19.15;3.33;;;6.30;99.90;;;;;;6257326;22;20024;-92
2022/03/19 07:10:48;;;;;;;17.92;4.47;;;6.40;99.90;;;;;;6282604;22;20019;-92
2022/03/19 07:13:15;;;;;;;10.55;3.05;;;6.40;99.90;;;;;;6282033;22;20425;-92
2022/03/19 07:15:42;;;;;;;14.18;3.78;;;6.40;99.90;;;;;;6284161;22;20379;-92
2022/03/19 07:18:10;;;;;;;8.48;2.58;;;6.50;99.90;;;;;;6309926;22;20038;-92
2022/03/19 07:20:36;;;;;;;10.05;2.40;;;6.50;99.90;;;;;;6286770;22;20067;-89
2022/03/19 07:23:06;;;;;;;13.73;3.40;;;6.50;99.90;;;;;;6256329;22;20019;-91
2022/03/19 07:25:35;;;;;;;11.77;2.75;;;6.60;99.90;;;;;;6307789;22;20023;-92
2022/03/19 07:28:09;;;;;;;8.00;2.03;;;6.60;99.90;;;;;;6283332;22;20015;-92
2022/03/19 07:30:37;;;;;;;16.65;3.45;;;6.60;99.90;;;;;;6282549;22;20397;-88
2022/03/19 07:33:04;;;;;;;10.55;2.83;;;6.70;99.90;;;;;;6282019;22;20015;-92
2022/03/19 07:35:35;;;;;;;9.65;2.85;;;6.80;99.90;;;;;;6282207;22;20080;-92
2022/03/19 07:38:06;;;;;;;9.47;3.57;;;6.80;99.90;;;;;;6282198;22;20019;-92
2022/03/19 07:43:20;;;;;;;8.68;2.53;;;6.90;99.90;;;;;;6308888;22;20099;-91
2022/03/19 07:45:48;;;;;;;6.80;2.42;;;7.00;99.90;;;;;;6282801;22;20027;-91
2022/03/19 07:48:15;;;;;;;15.60;2.50;;;7.10;99.90;;;;;;6281720;22;20073;-91
2022/03/19 07:50:54;;;;;;;13.88;3.30;;;7.10;99.90;;;;;;6309138;22;20019;-89
2022/03/19 07:53:22;;;;;;;12.38;2.95;;;7.20;99.90;;;;;;6281926;22;20011;-89
2022/03/19 07:55:53;;;;;;;6.75;2.70;;;7.20;99.90;;;;;;6282590;22;20023;-89
2022/03/19 07:58:21;;;;;;;8.70;2.03;;;7.30;99.90;;;;;;6281924;22;20038;-90
2022/03/19 08:00:49;;;;;;;13.50;3.20;;;7.20;99.90;;;;;;6282903;22;20482;-90
2022/03/19 08:03:17;;;;;;;7.78;1.83;;;7.20;99.90;;;;;;6308707;22;20043;-91
2022/03/19 08:05:44;;;;;;;14.63;2.90;;;7.20;99.90;;;;;;6282777;22;20057;-90
2022/03/19 08:08:11;;;;;;;14.45;2.58;;;7.30;99.90;;;;;;6282443;22;20046;-91
2022/03/19 08:10:45;;;;;;;9.00;2.60;;;7.20;99.90;;;;;;6283515;22;20342;-91
2022/03/19 08:13:12;;;;;;;;;;;7.30;99.90;;;;;;6309479;22;20015;-89
2022/03/19 08:15:40;;;;;;;9.23;2.83;;;7.30;99.90;;;;;;6282997;22;19927;-90
2022/03/19 08:18:10;;;;;;;13.80;2.78;;;7.30;99.90;;;;;;6283328;22;20526;-91
2022/03/19 08:20:38;;;;;;;13.77;3.38;;;7.30;99.90;;;;;;6258592;22;20050;-90
2022/03/19 08:23:05;;;;;;;9.15;3.30;;;7.30;99.90;;;;;;6257850;22;20030;-90
2022/03/19 08:25:33;;;;;;;11.25;3.50;;;7.30;99.90;;;;;;6311273;22;20073;-90
2022/03/19 08:28:00;;;;;;;14.32;2.67;;;7.40;99.90;;;;;;6282882;22;20030;-90
2022/03/19 08:30:32;;;;;;;13.30;2.88;;;7.40;99.90;;;;;;6283666;22;20016;-90
2022/03/19 08:32:59;;;;;;;6.80;2.85;;;7.40;99.90;;;;;;6282583;22;20047;-90
2022/03/19 08:35:27;;;;;;;10.73;2.90;;;7.40;99.90;;;;;;6282334;22;20507;-91
2022/03/19 08:40:15;;;;;;;11.10;2.80;;;7.40;99.90;;;;;;6282655;22;20039;-88
2022/03/19 08:40:41;;;;;;;10.82;3.17;;;7.50;99.90;;;;;;6307380;22;20354;-89
2022/03/19 08:43:10;;;;;;;16.73;4.65;;;7.50;99.90;;;;;;6308697;22;20506;-89
2022/03/19 08:45:37;;;;;;;9.93;2.75;;;7.60;99.90;;;;;;6282504;22;20023;-90
2022/03/19 08:48:05;;;;;;;11.43;2.88;;;7.60;99.90;;;;;;6257290;22;20015;-89
2022/03/19 08:50:32;;;;;;;11.15;3.50;;;7.50;99.90;;;;;;6309378;22;20398;-89
2022/03/19 08:52:59;;;;;;;7.85;3.22;;;7.50;99.90;;;;;;6281473;22;20362;-89
2022/03/19 08:55:25;;;;;;;10.30;2.70;;;7.60;99.90;;;;;;6281854;22;20078;-90
2022/03/19 08:57:59;;;;;;;9.15;3.45;;;7.60;99.90;;;;;;6282243;22;20022;-91
2022/03/19 09:00:26;;;;;;;18.85;4.30;;;7.70;99.90;;;;;;6301307;22;20070;-90
2022/03/19 09:02:55;;;;;;;16.70;3.35;;;7.60;99.90;;;;;;6280704;22;20018;-89
2022/03/19 09:05:23;;;;;;;13.25;3.10;;;7.70;99.90;;;;;;6281574;22;20019;-89
2022/03/19 09:07:50;;;;;;;10.07;3.10;;;7.70;99.90;;;;;;6281421;22;20035;-89
2022/03/19 09:10:20;;;;;;;14.77;3.22;;;7.60;99.90;;;;;;6308501;22;20102;-90
2022/03/19 09:12:47;;;;;;;14.65;3.25;;;7.70;99.90;;;;;;6255905;22;20125;-89
2022/03/19 09:15:14;;;;;;;11.60;3.35;;;7.80;99.90;;;;;;6280991;22;20042;-89
2022/03/19 09:17:41;;;;;;;24.45;3.83;;;7.90;99.90;;;;;;6281748;22;20031;-89
2022/03/19 09:20:10;;;;;;;9.75;2.97;;;7.80;99.90;;;;;;6280714;22;20015;-89
2022/03/19 09:22:37;;;;;;;14.38;4.45;;;7.90;99.90;;;;;;6281427;22;20077;-90
2022/03/19 09:25:05;;;;;;;21.88;3.58;;;8.00;99.90;;;;;;6282840;22;20023;-89
2022/03/19 09:27:32;;;;;;;13.98;3.65;;;8.00;99.90;;;;;;6281948;22;20019;-90
2022/03/19 09:30:00;;;;;;;9.02;3.40;;;8.10;99.90;;;;;;6308558;22;20443;-90
2022/03/19 09:32:27;;;;;;;8.27;2.53;;;8.10;99.90;;;;;;6280809;22;20039;-90
2022/03/19 09:34:54;;;;;;;11.52;3.53;;;8.00;99.90;;;;;;6281026;22;20473;-90
2022/03/19 09:37:21;;;;;;;13.25;3.00;;;8.10;99.90;;;;;;6281880;22;20022;-89
2022/03/19 09:39:49;;;;;;;15.73;3.08;;;8.20;99.90;;;;;;6281847;22;20027;-90
2022/03/19 09:42:16;;;;;;;17.00;3.88;;;8.30;99.90;;;;;;6281993;22;20019;-91
2022/03/19 09:44:44;;;;;;;9.65;3.47;;;8.40;99.90;;;;;;6281768;22;20023;-90
2022/03/19 09:47:17;;;;;;;18.15;5.15;;;8.40;99.90;;;;;;6257352;22;20300;-91
2022/03/19 09:49:58;;;;;;;12.55;4.43;;;8.40;99.90;;;;;;6257570;22;20065;-94
2022/03/19 09:52:29;;;;;;;13.50;4.25;;;8.60;99.90;;;;;;6308256;22;20069;-83
2022/03/19 09:55:01;;;;;;;17.20;4.22;;;8.60;99.90;;;;;;6309415;22;20065;-85
2022/03/19 09:57:28;;;;;;;9.65;3.95;;;8.60;99.90;;;;;;6309243;22;20015;-91
2022/03/19 09:59:55;;;;;;;7.22;3.83;;;8.50;99.90;;;;;;6255826;22;20631;-91
2022/03/19 10:02:22;;;;;;;12.02;4.10;;;8.70;99.90;;;;;;6280495;22;20019;-89
2022/03/19 10:04:54;;;;;;;14.38;4.20;;;8.60;99.90;;;;;;6255417;22;20106;-89
2022/03/19 10:10:14;;;;;;;8.77;3.45;;;8.80;99.90;;;;;;6280619;22;20030;-89
2022/03/19 10:12:45;;;;;;;17.45;3.85;;;8.70;99.90;;;;;;6281547;22;20072;-89
2022/03/19 10:15:12;;;;;;;14.20;4.45;;;8.80;99.90;;;;;;6281715;22;20015;-89
2022/03/19 10:17:40;;;;;;;11.43;3.88;;;8.90;99.90;;;;;;6295565;22;20007;-90
2022/03/19 10:20:12;;;;;;;15.15;3.78;;;8.90;99.90;;;;;;6306682;22;20018;-81
2022/03/19 10:22:42;;;;;;;10.95;3.22;;;9.00;99.90;;;;;;6285612;22;20320;-89
2022/03/19 10:25:11;;;;;;;12.07;3.25;;;8.80;99.90;;;;;;6311111;22;20046;-89
2022/03/19 10:27:41;;;;;;;19.67;4.25;;;9.10;99.90;;;;;;6282881;22;20024;-88
2022/03/19 10:30:18;;;;;;;;;;;9.20;99.90;;;;;;6281740;22;20042;-86
2022/03/19 10:32:52;;;;;;;13.43;4.25;;;9.30;99.90;;;;;;6308565;22;19942;-84
2022/03/19 10:35:25;;;;;;;16.73;3.17;;;9.30;99.90;;;;;;6280145;22;20019;-87
2022/03/19 10:37:53;;;;;;;19.63;3.35;;;9.30;99.90;;;;;;6307795;22;20453;-89
2022/03/19 10:40:21;;;;;;;9.52;3.67;;;9.30;99.90;;;;;;6281409;22;20030;-90
2022/03/19 10:42:51;;;;;;;11.75;4.18;;;9.30;99.90;;;;;;6280890;22;20030;-89
2022/03/19 10:45:22;;;;;;;7.95;3.15;;;9.20;99.90;;;;;;6254739;22;20023;-90
2022/03/19 10:47:49;;;;;;;12.35;4.60;;;9.20;99.90;;;;;;6308723;22;20019;-90
2022/03/19 10:50:21;;;;;;;13.50;3.30;;;9.30;99.90;;;;;;6308543;22;20098;-88
2022/03/19 10:52:50;;;;;;;10.85;3.05;;;9.40;99.90;;;;;;6280946;22;20011;-91
2022/03/19 10:55:19;;;;;;;9.18;3.08;;;9.50;99.90;;;;;;6282069;22;20435;-89
2022/03/19 10:57:46;;;;;;;8.90;3.42;;;9.60;99.90;;;;;;6308301;22;20020;-89
2022/03/19 11:00:14;;;;;;;15.68;3.13;;;9.50;99.90;;;;;;6280543;22;20026;-89
2022/03/19 11:02:45;;;;;;;13.93;3.30;;;9.50;99.90;;;;;;6254921;22;20102;-90
2022/03/19 11:05:18;;;;;;;15.48;3.38;;;9.60;99.90;;;;;;6307752;22;20050;-89
2022/03/19 11:07:49;;;;;;;13.82;2.83;;;9.70;99.90;;;;;;6306952;22;20023;-91
2022/03/19 11:10:19;;;;;;;12.35;2.65;;;9.70;99.90;;;;;;6305821;22;20057;-86
2022/03/19 11:12:52;;;;;;;11.55;2.75;;;9.90;99.90;;;;;;6308542;22;20011;-92
2022/03/19 11:15:20;;;;;;;14.63;2.95;;;9.80;99.90;;;;;;6255451;22;20019;-91
2022/03/19 11:17:50;;;;;;;11.65;2.70;;;10.00;99.90;;;;;;6281220;22;20015;-90
2022/03/19 11:20:23;;;;;;;9.18;2.50;;;10.20;99.90;;;;;;6280477;22;20020;-90
2022/03/19 11:22:54;;;;;;;11.95;2.83;;;10.30;99.90;;;;;;6280815;22;20461;-88
2022/03/19 11:25:27;;;;;;;10.07;2.17;;;10.20;99.90;;;;;;6280182;22;20059;-90
2022/03/19 11:28:09;;;;;;;8.95;3.22;;;10.20;99.90;;;;;;6280883;22;20019;-89
2022/03/19 11:30:57;;;;;;;6.97;2.22;;;10.30;99.90;;;;;;6254680;22;20076;-90
2022/03/19 11:33:27;;;;;;;12.10;3.03;;;10.50;99.90;;;;;;6279756;22;20023;-90
2022/03/19 11:36:00;;;;;;;17.05;3.03;;;10.50;99.90;;;;;;6307768;22;20532;-90
2022/03/19 11:38:28;;;;;;;;;;;10.50;99.90;;;;;;6280976;22;20019;-91
2022/03/19 11:40:57;;;;;;;20.58;3.33;;;10.50;99.90;;;;;;6280368;22;19944;-89
2022/03/19 11:43:27;;;;;;;11.35;2.85;;;10.70;99.90;;;;;;6278631;22;20015;-84
2022/03/19 11:46:03;;;;;;;6.97;1.98;;;10.50;99.90;;;;;;6309129;22;20015;-83
2022/03/19 11:48:34;;;;;;;5.72;2.45;;;10.50;99.90;;;;;;6283285;22;20019;-90
2022/03/19 11:51:28;;;;;;;11.63;2.58;;;10.60;99.90;;;;;;6282319;22;20424;-90
2022/03/19 11:54:12;;;;;;;;;;;10.70;99.90;;;;;;6310162;22;20019;-92
2022/03/19 11:56:45;;;;;;;10.95;3.75;;;10.70;83.10;;;;;;6310165;22;19914;-90
2022/03/19 11:59:16;;;;;;;7.20;2.27;;;10.60;39.00;;;;;;6310027;22;20019;-87
2022/03/19 12:01:59;;;;;;;10.00;2.38;;;10.60;27.10;;;;;;6281755;22;20240;-89
2022/03/19 12:04:48;;;;;;;15.15;2.78;;;10.60;23.30;;;;;;6309785;22;20023;-86
2022/03/19 12:07:39;;;;;;;4.85;2.25;;;10.80;23.50;;;;;;6309041;22;20084;-88
2022/03/19 12:10:13;;;;;;;6.40;1.80;;;10.90;17.30;;;;;;6282172;22;20019;-90
2022/03/19 12:12:44;;;;;;;8.40;2.35;;;11.00;17.50;;;;;;6282108;22;20098;-86
2022/03/19 12:15:30;;;;;;;11.50;2.47;;;11.10;14.80;;;;;;6308759;22;20011;-87
2022/03/19 12:18:29;;;;;;;6.85;2.50;;;11.00;12.00;;;;;;6308743;22;20011;-81
2022/03/19 12:21:21;;;;;;;10.75;2.25;;;11.20;11.30;;;;;;6281827;22;20043;-86
2022/03/19 12:24:08;;;;;;;8.65;2.70;;;11.30;10.40;;;;;;6309058;22;20059;-91
2022/03/19 12:26:42;;;;;;;9.68;1.95;;;11.20;10.30;;;;;;6282326;22;20011;-90
2022/03/19 12:29:15;;;;;;;14.30;2.70;;;11.30;6.30;;;;;;6282706;22;20068;-87
2022/03/19 12:31:46;;;;;;;5.65;1.77;;;11.50;1.00;;;;;;6281297;22;20638;-88
2022/03/19 12:34:16;;;;;;;9.27;2.05;;;11.70;3.00;;;;;;6281903;22;20117;-87
2022/03/19 12:36:46;;;;;;;9.70;2.53;;;11.70;2.00;;;;;;6308792;22;20038;-87
2022/03/19 12:39:13;;;;;;;10.27;2.22;;;11.50;2.70;;;;;;6308484;22;20354;-88
2022/03/19 12:41:41;;;;;;;5.65;2.03;;;11.50;4.00;;;;;;6280556;22;20102;-86
2022/03/19 12:44:30;;;;;;;5.90;2.20;;;11.40;2.00;;;;;;6281374;22;20025;-86
2022/03/19 12:47:01;;;;;;;10.13;2.58;;;11.50;3.10;;;;;;6308595;22;20023;-87
2022/03/19 12:49:29;;;;;;;6.15;2.10;;;11.50;2.40;;;;;;6309328;22;20015;-86
2022/03/19 12:51:56;;;;;;;10.80;2.88;;;11.70;6.70;;;;;;6307883;22;20016;-83
2022/03/19 12:54:30;;;;;;;7.40;1.90;;;11.80;10.40;;;;;;6308346;22;20082;-86
2022/03/19 12:57:09;;;;;;;8.75;1.55;;;11.70;5.50;;;;;;6282223;22;20393;-86
2022/03/19 12:59:37;;;;;;;6.80;3.00;;;11.70;6.40;;;;;;6255937;22;20073;-86
2022/03/19 13:02:04;;;;;;;8.55;1.63;;;11.70;5.20;;;;;;6307652;22;20023;-86
2022/03/19 13:04:34;;;;;;;5.07;1.88;;;11.80;6.70;;;;;;6282219;22;20019;-87
2022/03/19 13:07:05;;;;;;;5.13;1.98;;;11.90;4.50;;;;;;6280553;22;20019;-87
2022/03/19 13:09:38;;;;;;;8.63;1.92;;;11.80;2.70;;;;;;6281624;22;20015;-84
2022/03/19 13:12:19;;;;;;;5.25;1.65;;;11.80;2.40;;;;;;6308615;22;20045;-84
2022/03/19 13:14:49;;;;;;;9.00;2.30;;;11.70;2.70;;;;;;6281258;22;20015;-85
2022/03/19 13:17:17;;;;;;;5.57;2.35;;;11.90;3.20;;;;;;6280986;22;20027;-84
2022/03/19 13:19:44;;;;;;;6.60;2.25;;;11.90;2.50;;;;;;6308519;22;20015;-86
2022/03/19 13:22:21;;;;;;;9.35;2.35;;;12.10;14.80;;;;;;6306730;22;20023;-91